createdAt,value
2022-10-24T00:02:18.954Z,1.03
2022-10-24T00:05:18.959Z,1.13
2022-10-24T00:08:18.955Z,1.12
2022-10-24T00:11:18.961Z,1.24
2022-10-24T00:14:18.957Z,1.08
2022-10-24T00:17:18.949Z,1.04
2022-10-24T00:20:18.969Z,0.99
2022-10-24T00:23:18.954Z,1.06
2022-10-24T00:26:18.979Z,1.05
2022-10-24T00:29:18.967Z,1.03
2022-10-24T00:32:18.975Z,1.41
2022-10-24T00:35:18.955Z,1.4
2022-10-24T00:38:19.011Z,1.57
2022-10-24T00:41:18.973Z,1.56
2022-10-24T00:44:18.965Z,1.72
2022-10-24T00:47:19.006Z,1.16
2022-10-24T00:50:18.971Z,1.28
2022-10-24T00:53:19.043Z,1.34
2022-10-24T00:56:18.998Z,1.61
2022-10-24T00:59:19.005Z,0.98
2022-10-24T01:02:19.026Z,1.24
2022-10-24T01:05:19.011Z,1.56
2022-10-24T01:08:19.018Z,1.48
2022-10-24T01:11:19.014Z,1.41
2022-10-24T01:14:19.045Z,1.31
2022-10-24T01:17:19.044Z,1.38
2022-10-24T01:20:19.008Z,1.22
2022-10-24T01:23:19.040Z,1.48
2022-10-24T01:26:19.003Z,1.33
2022-10-24T01:29:19.028Z,1.29
2022-10-24T01:32:19.053Z,1.58
2022-10-24T01:35:19.061Z,1.31
2022-10-24T01:38:19.054Z,1.49
2022-10-24T01:41:19.055Z,1.63
2022-10-24T01:44:19.062Z,1.1
2022-10-24T01:47:19.028Z,1.37
2022-10-24T01:50:19.038Z,1.69
2022-10-24T01:53:20.047Z,1.53
2022-10-24T01:56:19.066Z,1.66
2022-10-24T01:59:19.015Z,1.76
2022-10-24T02:02:19.061Z,1.64
2022-10-24T02:05:19.068Z,1.47
2022-10-24T02:08:19.071Z,1.54
2022-10-24T02:11:19.081Z,1.64
2022-10-24T02:14:19.039Z,1.51
2022-10-24T02:17:19.112Z,1.32
2022-10-24T02:20:19.093Z,1.65
2022-10-24T02:23:19.084Z,1.7
2022-10-24T02:26:19.089Z,1.78
2022-10-24T02:29:19.106Z,1.58
2022-10-24T02:32:19.069Z,1.68
2022-10-24T02:35:19.075Z,1.75
2022-10-24T02:38:19.110Z,1.45
2022-10-24T02:41:19.093Z,1.48
2022-10-24T02:44:19.078Z,1.68
2022-10-24T02:47:19.089Z,1.45
2022-10-24T02:50:19.105Z,1.54
2022-10-24T02:53:19.110Z,1.01
2022-10-24T02:56:19.130Z,1.48
2022-10-24T02:59:19.135Z,1.28
2022-10-24T03:02:19.098Z,1.21
2022-10-24T03:05:19.094Z,1.22
2022-10-24T03:08:19.146Z,1.45
2022-10-24T03:11:19.115Z,1.39
2022-10-24T03:14:19.131Z,1.34
2022-10-24T03:17:19.164Z,1.24
2022-10-24T03:20:19.114Z,0.93
2022-10-24T03:23:19.148Z,1.18
2022-10-24T03:26:19.112Z,1.28
2022-10-24T03:29:19.139Z,1.51
2022-10-24T03:32:19.135Z,1.34
2022-10-24T03:35:19.173Z,1.17
2022-10-24T03:38:19.124Z,1.34
2022-10-24T03:41:19.189Z,1.31
2022-10-24T03:44:19.157Z,1.08
2022-10-24T03:47:19.132Z,1.18
2022-10-24T03:50:19.176Z,1.29
2022-10-24T03:53:19.158Z,1.26
2022-10-24T03:56:19.157Z,1.19
2022-10-24T03:59:19.178Z,1.3
2022-10-24T04:02:19.194Z,1.34
2022-10-24T04:05:19.150Z,1.48
2022-10-24T04:08:19.192Z,1.4
2022-10-24T04:11:19.161Z,1.32
2022-10-24T04:14:19.203Z,1.68
2022-10-24T04:17:19.189Z,1.34
2022-10-24T04:20:19.179Z,1.29
2022-10-24T04:23:19.210Z,1.31
2022-10-24T04:26:19.201Z,1.48
2022-10-24T04:29:19.239Z,1.5
2022-10-24T04:32:19.209Z,1.73
2022-10-24T04:35:19.209Z,1.37
2022-10-24T04:38:19.199Z,1.17
2022-10-24T04:41:19.210Z,1.33
2022-10-24T04:44:19.201Z,1.11
2022-10-24T04:50:19.234Z,1.45
2022-10-24T04:53:19.334Z,1.62
2022-10-24T04:56:19.215Z,1.69
2022-10-24T04:59:19.210Z,1.56
2022-10-24T05:02:19.328Z,1.37
2022-10-24T05:05:19.222Z,1.21
2022-10-24T05:08:19.226Z,1.41
2022-10-24T05:11:19.210Z,1.46
2022-10-24T05:14:19.230Z,1.53
2022-10-24T05:17:19.190Z,1.49
2022-10-24T05:20:19.246Z,1.44
2022-10-24T05:23:19.227Z,1.18
2022-10-24T05:26:19.249Z,1.12
2022-10-24T05:29:19.254Z,1.39
2022-10-24T05:32:19.236Z,1.03
2022-10-24T05:35:19.239Z,0.82
2022-10-24T05:38:19.257Z,1.23
2022-10-24T05:41:19.261Z,1.44
2022-10-24T05:44:19.244Z,1.61
2022-10-24T05:47:19.266Z,1.57
2022-10-24T05:50:19.241Z,1.8
2022-10-24T05:53:19.302Z,1.43
2022-10-24T05:56:19.261Z,1.24
2022-10-24T05:59:19.287Z,1.53
2022-10-24T06:02:19.388Z,1.47
2022-10-24T06:05:19.562Z,1.24
2022-10-24T06:08:19.279Z,1.58
2022-10-24T06:14:19.305Z,1.44
2022-10-24T06:17:19.289Z,1.58
2022-10-24T06:20:19.310Z,1.39
2022-10-24T06:23:19.305Z,1.31
2022-10-24T06:26:20.433Z,1.13
2022-10-24T06:29:19.286Z,1.6
2022-10-24T06:32:19.311Z,1.71
2022-10-24T06:35:19.320Z,1.4
2022-10-24T06:38:19.279Z,1.82
2022-10-24T06:41:19.372Z,1.56
2022-10-24T06:44:19.336Z,1.76
2022-10-24T06:47:19.280Z,1.53
2022-10-24T06:50:19.319Z,1.48
2022-10-24T06:56:19.330Z,0.7
2022-10-24T06:59:19.337Z,1.02
2022-10-24T07:02:19.408Z,0.88
2022-10-24T07:05:19.340Z,0.73
2022-10-24T07:08:19.332Z,0.73
2022-10-24T07:11:19.322Z,0.44
2022-10-24T07:14:19.337Z,0.43
2022-10-24T07:17:19.345Z,0.81
2022-10-24T07:20:19.360Z,0.75
2022-10-24T07:23:19.335Z,0.58
2022-10-24T07:26:19.346Z,0.67
2022-10-24T07:29:19.367Z,0.46
2022-10-24T07:32:21.787Z,0.59
2022-10-24T07:35:19.405Z,0.53
2022-10-24T07:38:19.366Z,0.34
2022-10-24T07:41:19.355Z,0.34
2022-10-24T07:44:19.381Z,0.49
2022-10-24T07:47:19.369Z,0.4
2022-10-24T07:50:19.386Z,0.25
2022-10-24T07:53:19.367Z,0.36
2022-10-24T07:56:19.375Z,0.27
2022-10-24T07:59:37.472Z,0.29
2022-10-24T08:02:19.412Z,0.43
2022-10-24T08:05:20.741Z,0.48
2022-10-24T08:08:31.198Z,0.84
2022-10-24T08:11:19.411Z,0.53
2022-10-24T08:14:19.370Z,0.61
2022-10-24T08:17:19.447Z,0.5
2022-10-24T08:20:19.422Z,0.53
2022-10-24T08:23:23.188Z,0.5
2022-10-24T08:26:19.432Z,0.35
2022-10-24T08:29:19.410Z,0.31
2022-10-24T08:32:19.440Z,0.48
2022-10-24T08:35:19.381Z,0.35
2022-10-24T08:38:19.464Z,0.8
2022-10-24T08:41:19.433Z,0.73
2022-10-24T08:44:19.433Z,0.62
2022-10-24T08:47:19.415Z,0.72
2022-10-24T08:50:19.416Z,0.8
2022-10-24T08:53:19.421Z,0.88
2022-10-24T08:56:19.426Z,1.1
2022-10-24T08:59:19.442Z,0.83
2022-10-24T09:02:19.519Z,0.76
2022-10-24T09:05:19.416Z,0.74
2022-10-24T09:08:20.387Z,0.87
2022-10-24T09:11:19.432Z,0.7
2022-10-24T09:14:19.447Z,0.72
2022-10-24T09:20:19.543Z,0.78
2022-10-24T09:23:19.467Z,1.11
2022-10-24T09:26:19.466Z,0.98
2022-10-24T09:29:19.450Z,0.87
2022-10-24T09:32:19.456Z,1.09
2022-10-24T09:35:19.479Z,0.99
2022-10-24T09:38:19.462Z,0.91
2022-10-24T09:41:19.447Z,1.21
2022-10-24T09:44:19.486Z,1.01
2022-10-24T09:50:19.477Z,0.95
2022-10-24T09:53:19.495Z,1.2
2022-10-24T09:56:19.513Z,1.3
2022-10-24T09:59:19.520Z,1.08
2022-10-24T10:02:19.643Z,1.13
2022-10-24T10:05:19.500Z,0.98
2022-10-24T10:08:19.471Z,1.14
2022-10-24T10:11:19.497Z,1.02
2022-10-24T10:14:19.518Z,0.88
2022-10-24T10:17:19.485Z,0.86
2022-10-24T10:20:19.626Z,1.05
2022-10-24T10:23:19.515Z,1.04
2022-10-24T10:26:19.486Z,1.19
2022-10-24T10:29:19.523Z,1.02
2022-10-24T10:32:19.497Z,1.04
2022-10-24T10:35:19.520Z,0.8
2022-10-24T10:38:19.550Z,0.73
2022-10-24T10:41:19.545Z,0.98
2022-10-24T10:44:19.541Z,1.31
2022-10-24T10:47:21.625Z,1.81
2022-10-24T10:50:19.532Z,1.96
2022-10-24T10:53:19.555Z,1.85
2022-10-24T10:56:19.596Z,1.64
2022-10-24T10:59:19.531Z,1.03
2022-10-24T11:02:19.650Z,1.32
2022-10-24T11:05:19.532Z,0.95
2022-10-24T11:08:19.538Z,0.75
2022-10-24T11:11:19.571Z,0.84
2022-10-24T11:14:19.545Z,0.66
2022-10-24T11:17:19.580Z,0.57
2022-10-24T11:20:19.542Z,0.97
2022-10-24T11:23:19.566Z,1.13
2022-10-24T11:26:19.538Z,0.96
2022-10-24T11:29:19.551Z,1.7
2022-10-24T11:32:19.550Z,1.37
2022-10-24T11:35:19.566Z,1.37
2022-10-24T11:38:19.593Z,1.28
2022-10-24T11:41:19.597Z,1.3
2022-10-24T11:44:19.582Z,1.48
2022-10-24T11:47:19.573Z,1.5
2022-10-24T11:50:20.657Z,1.25
2022-10-24T11:53:19.622Z,1.14
2022-10-24T11:56:22.298Z,1.21
2022-10-24T11:59:19.675Z,1.31
2022-10-24T12:02:19.601Z,1.44
2022-10-24T12:05:20.312Z,1.38
2022-10-24T12:08:19.656Z,1.17
2022-10-24T12:11:19.656Z,1.26
2022-10-24T12:14:19.603Z,1.52
2022-10-24T12:17:19.581Z,0.99
2022-10-24T12:20:19.613Z,1.33
2022-10-24T12:23:19.610Z,1.39
2022-10-24T12:26:19.620Z,1.28
2022-10-24T12:29:19.626Z,1.25
2022-10-24T12:32:19.641Z,1.51
2022-10-24T12:35:29.811Z,1.31
2022-10-24T12:38:19.634Z,1.32
2022-10-24T12:41:19.634Z,1.15
2022-10-24T12:44:19.644Z,1.41
2022-10-24T12:47:19.647Z,0.89
2022-10-24T12:50:19.617Z,0.94
2022-10-24T12:53:19.647Z,1.1
2022-10-24T12:59:19.647Z,1.12
2022-10-24T13:02:19.721Z,1.37
2022-10-24T13:05:19.655Z,1.45
2022-10-24T13:08:19.631Z,1.08
2022-10-24T13:11:19.667Z,1.24
2022-10-24T13:14:19.682Z,1.66
2022-10-24T13:17:19.695Z,1.48
2022-10-24T13:20:19.666Z,1.08
2022-10-24T13:23:19.672Z,1.1
2022-10-24T13:26:19.656Z,1.43
2022-10-24T13:29:19.722Z,1.22
2022-10-24T13:32:20.148Z,1.17
2022-10-24T13:35:19.699Z,1.59
2022-10-24T13:41:19.708Z,1.31
2022-10-24T13:44:19.702Z,1.14
2022-10-24T13:47:19.674Z,1.19
2022-10-24T13:50:19.738Z,1.24
2022-10-24T13:53:24.574Z,1.17
2022-10-24T13:56:19.673Z,1.22
2022-10-24T13:59:19.726Z,0.98
2022-10-24T14:02:19.711Z,0.84
2022-10-24T14:05:19.746Z,1.16
2022-10-24T14:08:19.722Z,1.52
2022-10-24T14:11:21.176Z,1.33
2022-10-24T14:14:19.731Z,0.92
2022-10-24T14:17:23.187Z,1.23
2022-10-24T14:20:19.771Z,1.2
2022-10-24T14:23:19.755Z,0.93
2022-10-24T14:26:19.755Z,0.83
2022-10-24T14:29:19.718Z,0.79
2022-10-24T14:32:19.826Z,1.05
2022-10-24T14:35:19.741Z,0.87
2022-10-24T14:38:19.771Z,0.82
2022-10-24T14:41:19.728Z,1.11
2022-10-24T14:44:19.768Z,0.75
2022-10-24T14:47:19.754Z,1.18
2022-10-24T14:50:19.765Z,1.25
2022-10-24T14:53:19.756Z,1.24
2022-10-24T14:56:19.737Z,1.06
2022-10-24T14:59:19.748Z,1.33
2022-10-24T15:02:19.763Z,1.18
2022-10-24T15:05:19.778Z,1.04
2022-10-24T15:08:22.401Z,1.25
2022-10-24T15:11:19.816Z,0.93
2022-10-24T15:14:19.772Z,0.95
2022-10-24T15:17:19.767Z,0.99
2022-10-24T15:20:19.797Z,1.1
2022-10-24T15:23:19.801Z,1.1
2022-10-24T15:26:19.813Z,1.03
2022-10-24T15:29:19.775Z,1.17
2022-10-24T15:32:19.801Z,0.72
2022-10-24T15:35:19.799Z,1.08
2022-10-24T15:38:19.848Z,0.98
2022-10-24T15:41:19.852Z,1.14
2022-10-24T15:44:19.792Z,1.24
2022-10-24T15:47:19.798Z,1.06
2022-10-24T15:50:19.840Z,0.97
2022-10-24T15:53:19.867Z,1.01
2022-10-24T15:56:19.825Z,0.74
2022-10-24T15:59:19.828Z,0.88
2022-10-24T16:02:19.846Z,0.96
2022-10-24T16:05:19.826Z,1.17
2022-10-24T16:08:19.818Z,0.91
2022-10-24T16:11:19.808Z,0.64
2022-10-24T16:14:19.831Z,0.76
2022-10-24T16:17:19.862Z,0.82
2022-10-24T16:20:19.821Z,0.96
2022-10-24T16:23:19.916Z,1.04
2022-10-24T16:26:19.786Z,1.28
2022-10-24T16:29:19.852Z,0.9
2022-10-24T16:35:19.863Z,1.38
2022-10-24T16:38:19.861Z,1.08
2022-10-24T16:41:19.864Z,1.09
2022-10-24T16:44:19.849Z,0.85
2022-10-24T16:47:19.901Z,1.21
2022-10-24T16:50:19.885Z,1.01
2022-10-24T16:53:19.843Z,1.13
2022-10-24T16:56:19.857Z,1.19
2022-10-24T16:59:19.902Z,1.06
2022-10-24T17:02:19.966Z,1.19
2022-10-24T17:05:19.852Z,1.24
2022-10-24T17:08:19.902Z,0.9
2022-10-24T17:11:43.642Z,1.43
2022-10-24T17:14:19.864Z,0.95
2022-10-24T17:17:19.882Z,0.79
2022-10-24T17:20:19.904Z,1.31
2022-10-24T17:23:19.897Z,1.31
2022-10-24T17:26:19.877Z,1.35
2022-10-24T17:29:19.909Z,1.37
2022-10-24T17:32:19.944Z,1.26
2022-10-24T17:35:19.886Z,1.25
2022-10-24T17:38:19.953Z,1.63
2022-10-24T17:41:19.888Z,1.27
2022-10-24T17:44:19.953Z,1.35
2022-10-24T17:47:19.889Z,1.29
2022-10-24T17:50:19.919Z,0.92
2022-10-24T17:53:19.907Z,1.38
2022-10-24T17:56:21.831Z,1.11
2022-10-24T17:59:19.912Z,1.43
2022-10-24T18:02:19.986Z,1.14
2022-10-24T18:05:20.053Z,1.13
2022-10-24T18:08:19.925Z,1.12
2022-10-24T18:11:19.921Z,1.15
2022-10-24T18:14:19.931Z,0.82
2022-10-24T18:17:19.938Z,0.68
2022-10-24T18:20:19.947Z,1.39
2022-10-24T18:23:19.918Z,1.32
2022-10-24T18:26:19.969Z,1.06
2022-10-24T18:29:19.958Z,0.83
2022-10-24T18:32:20.022Z,0.97
2022-10-24T18:35:19.952Z,0.91
2022-10-24T18:38:20.043Z,1.23
2022-10-24T18:41:19.974Z,1.09
2022-10-24T18:44:19.994Z,0.92
2022-10-24T18:47:21.861Z,0.86
2022-10-24T18:50:19.951Z,1.06
2022-10-24T18:53:21.463Z,1.08
2022-10-24T18:56:20.655Z,0.69
2022-10-24T18:59:19.964Z,0.82
2022-10-24T19:02:20.028Z,0.64
2022-10-24T19:05:19.994Z,0.5
2022-10-24T19:08:19.937Z,0.71
2022-10-24T19:11:19.997Z,0.65
2022-10-24T19:14:19.997Z,0.47
2022-10-24T19:17:19.984Z,0.65
2022-10-24T19:20:20.005Z,0.65
2022-10-24T19:23:19.971Z,0.66
2022-10-24T19:26:19.999Z,1.38
2022-10-24T19:29:19.974Z,1.82
2022-10-24T19:32:20.013Z,2
2022-10-24T19:35:20.022Z,1.57
2022-10-24T19:38:20.031Z,1.37
2022-10-24T19:41:20.015Z,0.89
2022-10-24T19:44:20.023Z,0.71
2022-10-24T19:47:19.991Z,0.91
2022-10-24T19:50:20.026Z,0.66
2022-10-24T19:53:20.055Z,0.73
2022-10-24T19:56:21.347Z,0.38
2022-10-24T19:59:19.994Z,0.43
2022-10-24T20:02:20.032Z,0.65
2022-10-24T20:05:20.032Z,0.84
2022-10-24T20:08:20.002Z,0.68
2022-10-24T20:11:20.061Z,0.83
2022-10-24T20:14:20.039Z,0.9
2022-10-24T20:17:20.030Z,0.97
2022-10-24T20:20:20.074Z,0.71
2022-10-24T20:23:20.092Z,0.76
2022-10-24T20:26:20.026Z,0.78
2022-10-24T20:29:20.087Z,0.88
2022-10-24T20:32:20.076Z,0.92
2022-10-24T20:35:20.096Z,1.28
2022-10-24T20:38:20.076Z,0.94
2022-10-24T20:41:20.048Z,0.89
2022-10-24T20:44:20.081Z,1.14
2022-10-24T20:47:20.033Z,1.39
2022-10-24T20:50:20.069Z,1.1
2022-10-24T20:53:20.035Z,1.1
2022-10-24T20:56:20.087Z,1.19
2022-10-24T20:59:20.049Z,0.82
2022-10-24T21:02:20.120Z,0.83
2022-10-24T21:05:20.079Z,0.53
2022-10-24T21:08:20.090Z,0.51
2022-10-24T21:11:20.088Z,0.52
2022-10-24T21:14:20.069Z,0.6
2022-10-24T21:17:20.132Z,0.71
2022-10-24T21:20:20.096Z,0.55
2022-10-24T21:23:20.089Z,0.71
2022-10-24T21:26:20.091Z,0.99
2022-10-24T21:29:32.544Z,0.84
2022-10-24T21:32:20.118Z,1.02
2022-10-24T21:35:20.087Z,1.41
2022-10-24T21:38:20.162Z,0.94
2022-10-24T21:41:20.098Z,1.25
2022-10-24T21:44:20.113Z,1.16
2022-10-24T21:47:20.110Z,1.49
2022-10-24T21:50:20.139Z,1.06
2022-10-24T21:53:20.108Z,1.09
2022-10-24T21:56:20.136Z,0.92
2022-10-24T21:59:20.118Z,1.09
2022-10-24T22:02:20.195Z,0.8
2022-10-24T22:05:20.128Z,0.91
2022-10-24T22:08:20.148Z,1.05
2022-10-24T22:11:20.131Z,0.89
2022-10-24T22:14:20.167Z,0.69
2022-10-24T22:17:20.117Z,0.61
2022-10-24T22:20:20.152Z,0.96
2022-10-24T22:23:20.134Z,0.72
2022-10-24T22:26:20.157Z,0.76
2022-10-24T22:29:20.166Z,0.67
2022-10-24T22:32:20.163Z,0.71
2022-10-24T22:35:20.163Z,0.54
2022-10-24T22:38:20.138Z,0.45
2022-10-24T22:41:20.190Z,0.76
2022-10-24T22:44:20.165Z,1.17
2022-10-24T22:47:20.149Z,1.02
2022-10-24T22:50:20.167Z,0.94
2022-10-24T22:53:20.207Z,0.96
2022-10-24T22:56:20.173Z,0.78
2022-10-24T22:59:20.184Z,0.72
2022-10-24T23:02:20.225Z,0.94
2022-10-24T23:05:20.774Z,0.79
2022-10-24T23:08:20.183Z,0.79
2022-10-24T23:11:20.229Z,0.85
2022-10-24T23:14:20.201Z,1.04
2022-10-24T23:17:20.189Z,0.98
2022-10-24T23:20:20.201Z,1.07
2022-10-24T23:23:28.586Z,0.84
2022-10-24T23:26:20.182Z,0.71
2022-10-24T23:29:20.219Z,1.12
2022-10-24T23:32:20.198Z,1.01
2022-10-24T23:35:20.224Z,1.37
2022-10-24T23:38:20.215Z,0.93
2022-10-24T23:41:20.188Z,0.79
2022-10-24T23:44:20.204Z,1.12
2022-10-24T23:47:20.218Z,0.86
2022-10-24T23:50:20.219Z,0.96
2022-10-24T23:53:20.219Z,0.78
2022-10-24T23:56:20.240Z,0.88
2022-10-24T23:59:20.235Z,0.78
